sensor_id;sensor_type;location;lat;lon;timestamp;P1;durP1;ratioP1;P2;durP2;ratioP2
41061;SDS011;26812;42.662;23.352;2022-10-10T00:01:26;19.20;;;15.65;;
41061;SDS011;26812;42.662;23.352;2022-10-10T00:03:54;20.42;;;15.18;;
41061;SDS011;26812;42.662;23.352;2022-10-10T00:06:20;21.02;;;15.27;;
41061;SDS011;26812;42.662;23.352;2022-10-10T00:08:46;21.90;;;17.73;;
41061;SDS011;26812;42.662;23.352;2022-10-10T00:11:12;20.70;;;16.17;;
41061;SDS011;26812;42.662;23.352;2022-10-10T00:13:40;21.27;;;16.23;;
41061;SDS011;26812;42.662;23.352;2022-10-10T00:16:06;18.23;;;15.00;;
41061;SDS011;26812;42.662;23.352;2022-10-10T00:18:32;19.20;;;15.27;;
41061;SDS011;26812;42.662;23.352;2022-10-10T00:20:58;19.85;;;14.32;;
41061;SDS011;26812;42.662;23.352;2022-10-10T00:23:29;22.00;;;15.40;;
41061;SDS011;26812;42.662;23.352;2022-10-10T00:25:55;19.67;;;15.32;;
41061;SDS011;26812;42.662;23.352;2022-10-10T00:28:21;19.65;;;14.90;;
41061;SDS011;26812;42.662;23.352;2022-10-10T00:30:47;16.95;;;14.65;;
41061;SDS011;26812;42.662;23.352;2022-10-10T00:33:13;19.20;;;14.43;;
41061;SDS011;26812;42.662;23.352;2022-10-10T00:35:39;18.13;;;14.55;;
41061;SDS011;26812;42.662;23.352;2022-10-10T00:38:05;18.75;;;14.35;;
41061;SDS011;26812;42.662;23.352;2022-10-10T00:40:30;19.00;;;14.85;;
41061;SDS011;26812;42.662;23.352;2022-10-10T00:42:56;17.95;;;14.95;;
41061;SDS011;26812;42.662;23.352;2022-10-10T00:48:38;20.27;;;15.43;;
41061;SDS011;26812;42.662;23.352;2022-10-10T00:53:18;21.35;;;17.05;;
41061;SDS011;26812;42.662;23.352;2022-10-10T00:55:48;18.17;;;15.88;;
41061;SDS011;26812;42.662;23.352;2022-10-10T00:58:14;20.33;;;15.77;;
41061;SDS011;26812;42.662;23.352;2022-10-10T01:00:41;18.27;;;16.33;;
41061;SDS011;26812;42.662;23.352;2022-10-10T01:03:07;19.90;;;15.52;;
41061;SDS011;26812;42.662;23.352;2022-10-10T01:05:32;18.33;;;15.82;;
41061;SDS011;26812;42.662;23.352;2022-10-10T01:07:59;18.52;;;15.00;;
41061;SDS011;26812;42.662;23.352;2022-10-10T01:10:27;22.23;;;16.63;;
41061;SDS011;26812;42.662;23.352;2022-10-10T01:21:22;21.80;;;16.50;;
41061;SDS011;26812;42.662;23.352;2022-10-10T01:27:05;22.70;;;16.70;;
41061;SDS011;26812;42.662;23.352;2022-10-10T01:29:51;21.40;;;17.13;;
41061;SDS011;26812;42.662;23.352;2022-10-10T01:43:03;24.75;;;17.52;;
41061;SDS011;26812;42.662;23.352;2022-10-10T01:45:31;20.90;;;16.92;;
41061;SDS011;26812;42.662;23.352;2022-10-10T01:47:59;23.27;;;16.73;;
41061;SDS011;26812;42.662;23.352;2022-10-10T01:50:27;19.17;;;16.10;;
41061;SDS011;26812;42.662;23.352;2022-10-10T02:03:46;19.05;;;16.02;;
41061;SDS011;26812;42.662;23.352;2022-10-10T02:06:32;19.83;;;16.58;;
41061;SDS011;26812;42.662;23.352;2022-10-10T02:09:06;21.88;;;16.83;;
41061;SDS011;26812;42.662;23.352;2022-10-10T02:11:35;17.30;;;15.32;;
41061;SDS011;26812;42.662;23.352;2022-10-10T02:14:36;22.27;;;16.33;;
41061;SDS011;26812;42.662;23.352;2022-10-10T02:16:58;23.20;;;16.67;;
41061;SDS011;26812;42.662;23.352;2022-10-10T02:19:26;19.27;;;15.32;;
41061;SDS011;26812;42.662;23.352;2022-10-10T02:21:57;19.42;;;16.38;;
41061;SDS011;26812;42.662;23.352;2022-10-10T02:24:24;20.08;;;16.58;;
41061;SDS011;26812;42.662;23.352;2022-10-10T02:27:02;19.63;;;16.23;;
41061;SDS011;26812;42.662;23.352;2022-10-10T02:29:35;21.42;;;16.38;;
41061;SDS011;26812;42.662;23.352;2022-10-10T02:32:08;22.05;;;17.38;;
41061;SDS011;26812;42.662;23.352;2022-10-10T02:34:39;20.05;;;16.60;;
41061;SDS011;26812;42.662;23.352;2022-10-10T02:37:12;20.90;;;16.25;;
41061;SDS011;26812;42.662;23.352;2022-10-10T02:39:41;21.40;;;17.08;;
41061;SDS011;26812;42.662;23.352;2022-10-10T02:42:14;21.15;;;15.77;;
41061;SDS011;26812;42.662;23.352;2022-10-10T02:44:42;21.10;;;15.85;;
41061;SDS011;26812;42.662;23.352;2022-10-10T02:47:09;20.55;;;16.98;;
41061;SDS011;26812;42.662;23.352;2022-10-10T02:49:34;22.35;;;16.40;;
41061;SDS011;26812;42.662;23.352;2022-10-10T02:52:00;19.38;;;16.52;;
41061;SDS011;26812;42.662;23.352;2022-10-10T02:54:26;21.17;;;16.27;;
41061;SDS011;26812;42.662;23.352;2022-10-10T02:56:52;19.55;;;15.80;;
41061;SDS011;26812;42.662;23.352;2022-10-10T02:59:17;22.15;;;15.88;;
41061;SDS011;26812;42.662;23.352;2022-10-10T03:01:43;20.75;;;16.33;;
41061;SDS011;26812;42.662;23.352;2022-10-10T03:04:09;19.33;;;16.10;;
41061;SDS011;26812;42.662;23.352;2022-10-10T03:06:35;19.30;;;15.38;;
41061;SDS011;26812;42.662;23.352;2022-10-10T03:09:00;19.70;;;14.65;;
41061;SDS011;26812;42.662;23.352;2022-10-10T03:11:26;18.63;;;15.43;;
41061;SDS011;26812;42.662;23.352;2022-10-10T03:13:52;17.38;;;15.07;;
41061;SDS011;26812;42.662;23.352;2022-10-10T03:16:17;19.48;;;15.07;;
41061;SDS011;26812;42.662;23.352;2022-10-10T03:18:43;19.38;;;15.98;;
41061;SDS011;26812;42.662;23.352;2022-10-10T03:21:08;19.17;;;16.52;;
41061;SDS011;26812;42.662;23.352;2022-10-10T03:23:34;19.30;;;17.17;;
41061;SDS011;26812;42.662;23.352;2022-10-10T03:25:59;20.20;;;15.38;;
41061;SDS011;26812;42.662;23.352;2022-10-10T03:28:25;19.50;;;15.57;;
41061;SDS011;26812;42.662;23.352;2022-10-10T03:30:51;19.77;;;16.33;;
41061;SDS011;26812;42.662;23.352;2022-10-10T03:33:16;19.13;;;15.35;;
41061;SDS011;26812;42.662;23.352;2022-10-10T03:35:42;21.27;;;14.90;;
41061;SDS011;26812;42.662;23.352;2022-10-10T03:38:08;21.20;;;15.95;;
41061;SDS011;26812;42.662;23.352;2022-10-10T03:40:42;18.75;;;14.75;;
41061;SDS011;26812;42.662;23.352;2022-10-10T03:43:09;21.33;;;16.52;;
41061;SDS011;26812;42.662;23.352;2022-10-10T03:45:47;17.08;;;15.27;;
41061;SDS011;26812;42.662;23.352;2022-10-10T03:48:17;18.35;;;15.02;;
41061;SDS011;26812;42.662;23.352;2022-10-10T03:50:42;19.33;;;15.75;;
41061;SDS011;26812;42.662;23.352;2022-10-10T03:53:08;16.83;;;14.82;;
41061;SDS011;26812;42.662;23.352;2022-10-10T03:55:39;17.13;;;14.88;;
41061;SDS011;26812;42.662;23.352;2022-10-10T03:58:11;24.40;;;16.65;;
41061;SDS011;26812;42.662;23.352;2022-10-10T04:00:37;18.90;;;14.90;;
41061;SDS011;26812;42.662;23.352;2022-10-10T04:03:03;20.70;;;16.20;;
41061;SDS011;26812;42.662;23.352;2022-10-10T04:05:34;18.58;;;15.88;;
41061;SDS011;26812;42.662;23.352;2022-10-10T04:08:00;20.15;;;16.48;;
41061;SDS011;26812;42.662;23.352;2022-10-10T04:10:26;22.83;;;17.90;;
41061;SDS011;26812;42.662;23.352;2022-10-10T04:12:51;21.20;;;17.58;;
41061;SDS011;26812;42.662;23.352;2022-10-10T04:15:17;22.17;;;17.90;;
41061;SDS011;26812;42.662;23.352;2022-10-10T04:17:44;24.45;;;18.35;;
41061;SDS011;26812;42.662;23.352;2022-10-10T04:20:10;24.88;;;18.13;;
41061;SDS011;26812;42.662;23.352;2022-10-10T04:22:36;20.60;;;18.00;;
41061;SDS011;26812;42.662;23.352;2022-10-10T04:25:01;23.77;;;19.10;;
41061;SDS011;26812;42.662;23.352;2022-10-10T04:27:27;26.20;;;19.55;;
41061;SDS011;26812;42.662;23.352;2022-10-10T04:29:52;23.85;;;20.13;;
41061;SDS011;26812;42.662;23.352;2022-10-10T04:32:18;23.48;;;19.08;;
41061;SDS011;26812;42.662;23.352;2022-10-10T04:34:43;24.40;;;18.23;;
41061;SDS011;26812;42.662;23.352;2022-10-10T04:37:09;27.25;;;18.67;;
41061;SDS011;26812;42.662;23.352;2022-10-10T04:39:34;25.38;;;19.95;;
41061;SDS011;26812;42.662;23.352;2022-10-10T04:42:00;25.77;;;19.15;;
41061;SDS011;26812;42.662;23.352;2022-10-10T04:44:25;26.58;;;20.45;;
41061;SDS011;26812;42.662;23.352;2022-10-10T04:46:51;27.15;;;21.40;;
41061;SDS011;26812;42.662;23.352;2022-10-10T04:49:19;26.88;;;21.13;;
41061;SDS011;26812;42.662;23.352;2022-10-10T04:51:44;30.90;;;21.63;;
41061;SDS011;26812;42.662;23.352;2022-10-10T04:54:10;29.50;;;22.23;;
41061;SDS011;26812;42.662;23.352;2022-10-10T04:56:37;28.23;;;20.75;;
41061;SDS011;26812;42.662;23.352;2022-10-10T04:59:05;26.67;;;19.90;;
41061;SDS011;26812;42.662;23.352;2022-10-10T05:01:31;25.42;;;19.75;;
41061;SDS011;26812;42.662;23.352;2022-10-10T05:03:57;27.98;;;20.67;;
41061;SDS011;26812;42.662;23.352;2022-10-10T05:06:23;26.40;;;19.60;;
41061;SDS011;26812;42.662;23.352;2022-10-10T05:08:48;29.35;;;20.35;;
41061;SDS011;26812;42.662;23.352;2022-10-10T05:11:14;27.42;;;20.90;;
41061;SDS011;26812;42.662;23.352;2022-10-10T05:13:39;26.15;;;21.08;;
41061;SDS011;26812;42.662;23.352;2022-10-10T05:16:05;27.25;;;20.33;;
41061;SDS011;26812;42.662;23.352;2022-10-10T05:18:30;30.42;;;21.55;;
41061;SDS011;26812;42.662;23.352;2022-10-10T05:20:56;28.27;;;20.83;;
41061;SDS011;26812;42.662;23.352;2022-10-10T05:23:27;31.77;;;21.20;;
41061;SDS011;26812;42.662;23.352;2022-10-10T05:25:53;28.38;;;22.98;;
41061;SDS011;26812;42.662;23.352;2022-10-10T05:28:18;28.83;;;21.73;;
41061;SDS011;26812;42.662;23.352;2022-10-10T05:30:44;32.58;;;23.08;;
41061;SDS011;26812;42.662;23.352;2022-10-10T05:33:09;30.25;;;23.27;;
41061;SDS011;26812;42.662;23.352;2022-10-10T05:35:38;28.98;;;22.88;;
41061;SDS011;26812;42.662;23.352;2022-10-10T05:38:03;29.73;;;24.58;;
41061;SDS011;26812;42.662;23.352;2022-10-10T05:40:29;33.03;;;23.55;;
41061;SDS011;26812;42.662;23.352;2022-10-10T05:42:54;31.63;;;23.67;;
41061;SDS011;26812;42.662;23.352;2022-10-10T05:45:20;35.53;;;24.70;;
41061;SDS011;26812;42.662;23.352;2022-10-10T05:47:45;32.63;;;23.73;;
41061;SDS011;26812;42.662;23.352;2022-10-10T05:50:17;30.95;;;25.23;;
41061;SDS011;26812;42.662;23.352;2022-10-10T05:52:54;32.05;;;23.50;;
41061;SDS011;26812;42.662;23.352;2022-10-10T05:55:27;32.95;;;23.17;;
41061;SDS011;26812;42.662;23.352;2022-10-10T05:57:59;34.90;;;23.70;;
41061;SDS011;26812;42.662;23.352;2022-10-10T06:00:31;36.13;;;23.38;;
41061;SDS011;26812;42.662;23.352;2022-10-10T06:02:57;37.22;;;24.63;;
41061;SDS011;26812;42.662;23.352;2022-10-10T06:05:23;35.75;;;23.90;;
41061;SDS011;26812;42.662;23.352;2022-10-10T06:07:49;30.50;;;23.05;;
41061;SDS011;26812;42.662;23.352;2022-10-10T06:10:14;31.33;;;23.58;;
41061;SDS011;26812;42.662;23.352;2022-10-10T06:12:40;35.15;;;22.98;;
41061;SDS011;26812;42.662;23.352;2022-10-10T06:15:05;30.33;;;21.40;;
41061;SDS011;26812;42.662;23.352;2022-10-10T06:17:31;21.77;;;17.15;;
41061;SDS011;26812;42.662;23.352;2022-10-10T06:19:57;21.63;;;17.38;;
41061;SDS011;26812;42.662;23.352;2022-10-10T06:22:22;27.08;;;18.13;;
41061;SDS011;26812;42.662;23.352;2022-10-10T06:24:48;24.10;;;18.02;;
41061;SDS011;26812;42.662;23.352;2022-10-10T06:27:13;18.83;;;15.77;;
41061;SDS011;26812;42.662;23.352;2022-10-10T06:29:39;25.00;;;18.75;;
41061;SDS011;26812;42.662;23.352;2022-10-10T06:32:13;22.98;;;16.70;;
41061;SDS011;26812;42.662;23.352;2022-10-10T06:34:39;23.05;;;18.70;;
41061;SDS011;26812;42.662;23.352;2022-10-10T06:37:04;23.85;;;19.25;;
41061;SDS011;26812;42.662;23.352;2022-10-10T06:39:30;26.08;;;19.65;;
41061;SDS011;26812;42.662;23.352;2022-10-10T06:41:55;25.05;;;19.13;;
41061;SDS011;26812;42.662;23.352;2022-10-10T06:44:20;26.92;;;21.13;;
41061;SDS011;26812;42.662;23.352;2022-10-10T06:46:46;29.00;;;19.55;;
41061;SDS011;26812;42.662;23.352;2022-10-10T06:49:11;23.40;;;18.80;;
41061;SDS011;26812;42.662;23.352;2022-10-10T06:51:37;29.30;;;20.98;;
41061;SDS011;26812;42.662;23.352;2022-10-10T06:54:03;23.75;;;20.05;;
41061;SDS011;26812;42.662;23.352;2022-10-10T06:56:29;29.17;;;20.00;;
41061;SDS011;26812;42.662;23.352;2022-10-10T06:58:54;27.25;;;20.67;;
41061;SDS011;26812;42.662;23.352;2022-10-10T07:01:20;25.35;;;18.77;;
41061;SDS011;26812;42.662;23.352;2022-10-10T07:03:48;25.95;;;19.70;;
41061;SDS011;26812;42.662;23.352;2022-10-10T07:06:13;26.50;;;18.98;;
41061;SDS011;26812;42.662;23.352;2022-10-10T07:08:40;21.88;;;17.73;;
41061;SDS011;26812;42.662;23.352;2022-10-10T07:11:06;23.52;;;17.35;;
41061;SDS011;26812;42.662;23.352;2022-10-10T07:13:33;25.05;;;17.73;;
41061;SDS011;26812;42.662;23.352;2022-10-10T07:15:59;19.92;;;16.48;;
41061;SDS011;26812;42.662;23.352;2022-10-10T07:18:25;19.30;;;16.10;;
41061;SDS011;26812;42.662;23.352;2022-10-10T07:20:54;20.80;;;16.75;;
41061;SDS011;26812;42.662;23.352;2022-10-10T07:23:20;21.02;;;15.32;;
41061;SDS011;26812;42.662;23.352;2022-10-10T07:25:46;19.58;;;15.32;;
41061;SDS011;26812;42.662;23.352;2022-10-10T07:28:11;20.13;;;16.10;;
41061;SDS011;26812;42.662;23.352;2022-10-10T07:30:40;21.08;;;16.10;;
41061;SDS011;26812;42.662;23.352;2022-10-10T07:33:08;19.30;;;15.27;;
41061;SDS011;26812;42.662;23.352;2022-10-10T07:35:34;20.17;;;14.57;;
41061;SDS011;26812;42.662;23.352;2022-10-10T07:38:00;17.65;;;14.35;;
41061;SDS011;26812;42.662;23.352;2022-10-10T07:40:26;22.63;;;16.65;;
41061;SDS011;26812;42.662;23.352;2022-10-10T07:42:51;17.55;;;15.07;;
41061;SDS011;26812;42.662;23.352;2022-10-10T07:45:17;16.45;;;13.98;;
41061;SDS011;26812;42.662;23.352;2022-10-10T07:47:42;17.25;;;13.10;;
41061;SDS011;26812;42.662;23.352;2022-10-10T07:50:08;16.45;;;13.57;;
41061;SDS011;26812;42.662;23.352;2022-10-10T07:52:35;19.70;;;13.57;;
41061;SDS011;26812;42.662;23.352;2022-10-10T07:55:01;16.80;;;11.98;;
41061;SDS011;26812;42.662;23.352;2022-10-10T07:57:28;17.08;;;12.02;;
41061;SDS011;26812;42.662;23.352;2022-10-10T07:59:53;15.90;;;11.75;;
41061;SDS011;26812;42.662;23.352;2022-10-10T08:02:18;17.30;;;11.35;;
41061;SDS011;26812;42.662;23.352;2022-10-10T08:04:44;14.23;;;10.63;;
41061;SDS011;26812;42.662;23.352;2022-10-10T08:07:09;15.25;;;9.98;;
41061;SDS011;26812;42.662;23.352;2022-10-10T08:09:35;11.25;;;10.07;;
41061;SDS011;26812;42.662;23.352;2022-10-10T08:12:00;14.80;;;10.00;;
41061;SDS011;26812;42.662;23.352;2022-10-10T08:14:26;11.05;;;9.18;;
41061;SDS011;26812;42.662;23.352;2022-10-10T08:16:51;12.32;;;9.40;;
41061;SDS011;26812;42.662;23.352;2022-10-10T08:19:17;15.85;;;9.35;;
41061;SDS011;26812;42.662;23.352;2022-10-10T08:21:43;10.77;;;9.60;;
41061;SDS011;26812;42.662;23.352;2022-10-10T08:24:08;14.90;;;8.82;;
41061;SDS011;26812;42.662;23.352;2022-10-10T08:26:33;14.27;;;10.07;;
41061;SDS011;26812;42.662;23.352;2022-10-10T08:28:59;12.00;;;9.63;;
41061;SDS011;26812;42.662;23.352;2022-10-10T08:31:24;13.50;;;9.32;;
41061;SDS011;26812;42.662;23.352;2022-10-10T08:33:50;12.35;;;8.43;;
41061;SDS011;26812;42.662;23.352;2022-10-10T08:36:23;10.60;;;8.38;;
41061;SDS011;26812;42.662;23.352;2022-10-10T08:38:49;8.57;;;7.32;;
41061;SDS011;26812;42.662;23.352;2022-10-10T08:44:01;11.30;;;8.02;;
41061;SDS011;26812;42.662;23.352;2022-10-10T08:46:33;10.27;;;7.88;;
41061;SDS011;26812;42.662;23.352;2022-10-10T08:49:56;14.02;;;8.25;;
41061;SDS011;26812;42.662;23.352;2022-10-10T08:55:20;11.30;;;7.35;;
41061;SDS011;26812;42.662;23.352;2022-10-10T08:57:53;8.82;;;8.00;;
41061;SDS011;26812;42.662;23.352;2022-10-10T09:00:22;10.48;;;7.57;;
41061;SDS011;26812;42.662;23.352;2022-10-10T09:02:51;9.40;;;7.45;;
41061;SDS011;26812;42.662;23.352;2022-10-10T09:10:49;7.55;;;6.75;;
41061;SDS011;26812;42.662;23.352;2022-10-10T09:16:21;9.40;;;6.68;;
41061;SDS011;26812;42.662;23.352;2022-10-10T09:21:49;7.68;;;6.90;;
41061;SDS011;26812;42.662;23.352;2022-10-10T09:24:23;7.35;;;6.57;;
41061;SDS011;26812;42.662;23.352;2022-10-10T09:26:57;7.15;;;6.30;;
41061;SDS011;26812;42.662;23.352;2022-10-10T09:29:33;8.00;;;6.40;;
41061;SDS011;26812;42.662;23.352;2022-10-10T09:32:24;6.22;;;5.53;;
41061;SDS011;26812;42.662;23.352;2022-10-10T09:35:16;10.38;;;6.50;;
41061;SDS011;26812;42.662;23.352;2022-10-10T09:37:48;6.45;;;5.75;;
41061;SDS011;26812;42.662;23.352;2022-10-10T09:42:51;8.68;;;7.05;;
41061;SDS011;26812;42.662;23.352;2022-10-10T09:45:18;6.00;;;5.47;;
41061;SDS011;26812;42.662;23.352;2022-10-10T09:47:50;6.90;;;6.22;;
41061;SDS011;26812;42.662;23.352;2022-10-10T09:50:19;7.90;;;6.03;;
41061;SDS011;26812;42.662;23.352;2022-10-10T09:52:45;7.38;;;6.05;;
41061;SDS011;26812;42.662;23.352;2022-10-10T09:57:46;10.30;;;6.32;;
41061;SDS011;26812;42.662;23.352;2022-10-10T10:02:46;8.43;;;6.30;;
41061;SDS011;26812;42.662;23.352;2022-10-10T10:05:25;7.53;;;6.82;;
41061;SDS011;26812;42.662;23.352;2022-10-10T10:07:51;8.55;;;6.30;;
41061;SDS011;26812;42.662;23.352;2022-10-10T10:10:18;7.57;;;6.47;;
41061;SDS011;26812;42.662;23.352;2022-10-10T10:12:47;10.73;;;6.28;;
41061;SDS011;26812;42.662;23.352;2022-10-10T10:15:24;8.45;;;6.53;;
41061;SDS011;26812;42.662;23.352;2022-10-10T10:18:08;8.80;;;6.30;;
41061;SDS011;26812;42.662;23.352;2022-10-10T10:20:35;10.73;;;6.65;;
41061;SDS011;26812;42.662;23.352;2022-10-10T10:23:02;7.18;;;5.65;;
41061;SDS011;26812;42.662;23.352;2022-10-10T10:25:32;8.45;;;6.60;;
41061;SDS011;26812;42.662;23.352;2022-10-10T10:30:35;8.32;;;6.15;;
41061;SDS011;26812;42.662;23.352;2022-10-10T10:33:19;7.40;;;5.95;;
41061;SDS011;26812;42.662;23.352;2022-10-10T10:41:01;8.13;;;7.10;;
41061;SDS011;26812;42.662;23.352;2022-10-10T10:43:42;7.05;;;5.93;;
41061;SDS011;26812;42.662;23.352;2022-10-10T10:46:37;6.40;;;5.80;;
41061;SDS011;26812;42.662;23.352;2022-10-10T10:52:24;13.85;;;10.10;;
41061;SDS011;26812;42.662;23.352;2022-10-10T11:00:22;6.45;;;5.75;;
41061;SDS011;26812;42.662;23.352;2022-10-10T11:05:34;7.05;;;6.28;;
41061;SDS011;26812;42.662;23.352;2022-10-10T11:14:11;6.90;;;6.25;;
41061;SDS011;26812;42.662;23.352;2022-10-10T11:16:46;7.18;;;6.57;;
41061;SDS011;26812;42.662;23.352;2022-10-10T11:19:17;6.15;;;5.40;;
41061;SDS011;26812;42.662;23.352;2022-10-10T11:21:51;6.35;;;5.75;;
41061;SDS011;26812;42.662;23.352;2022-10-10T11:24:26;5.95;;;5.35;;
41061;SDS011;26812;42.662;23.352;2022-10-10T11:27:32;8.43;;;5.97;;
41061;SDS011;26812;42.662;23.352;2022-10-10T11:30:04;6.55;;;5.43;;
41061;SDS011;26812;42.662;23.352;2022-10-10T11:32:36;7.78;;;5.90;;
41061;SDS011;26812;42.662;23.352;2022-10-10T11:37:47;7.78;;;5.78;;
41061;SDS011;26812;42.662;23.352;2022-10-10T11:41:06;8.38;;;5.68;;
41061;SDS011;26812;42.662;23.352;2022-10-10T11:43:17;6.00;;;5.40;;
41061;SDS011;26812;42.662;23.352;2022-10-10T11:45:50;6.50;;;5.25;;
41061;SDS011;26812;42.662;23.352;2022-10-10T11:51:07;6.32;;;5.68;;
41061;SDS011;26812;42.662;23.352;2022-10-10T11:53:45;8.25;;;5.97;;
41061;SDS011;26812;42.662;23.352;2022-10-10T11:58:52;6.70;;;5.85;;
41061;SDS011;26812;42.662;23.352;2022-10-10T12:01:33;6.03;;;5.45;;
41061;SDS011;26812;42.662;23.352;2022-10-10T12:04:02;5.78;;;5.22;;
41061;SDS011;26812;42.662;23.352;2022-10-10T12:11:38;6.88;;;5.75;;
41061;SDS011;26812;42.662;23.352;2022-10-10T12:14:07;6.88;;;5.63;;
41061;SDS011;26812;42.662;23.352;2022-10-10T12:16:37;6.00;;;5.45;;
41061;SDS011;26812;42.662;23.352;2022-10-10T12:19:04;6.50;;;5.80;;
41061;SDS011;26812;42.662;23.352;2022-10-10T12:24:29;5.97;;;5.43;;
41061;SDS011;26812;42.662;23.352;2022-10-10T12:29:47;9.05;;;5.68;;
41061;SDS011;26812;42.662;23.352;2022-10-10T12:35:10;5.60;;;5.10;;
41061;SDS011;26812;42.662;23.352;2022-10-10T12:41:10;5.93;;;5.32;;
41061;SDS011;26812;42.662;23.352;2022-10-10T12:43:39;6.05;;;5.35;;
41061;SDS011;26812;42.662;23.352;2022-10-10T12:48:56;5.38;;;4.88;;
41061;SDS011;26812;42.662;23.352;2022-10-10T12:51:24;5.10;;;4.32;;
41061;SDS011;26812;42.662;23.352;2022-10-10T12:53:53;5.68;;;4.72;;
41061;SDS011;26812;42.662;23.352;2022-10-10T12:59:17;5.05;;;4.65;;
41061;SDS011;26812;42.662;23.352;2022-10-10T13:01:51;6.47;;;5.20;;
41061;SDS011;26812;42.662;23.352;2022-10-10T13:04:20;6.65;;;6.05;;
41061;SDS011;26812;42.662;23.352;2022-10-10T13:06:48;5.97;;;5.03;;
41061;SDS011;26812;42.662;23.352;2022-10-10T13:09:19;6.88;;;5.13;;
41061;SDS011;26812;42.662;23.352;2022-10-10T13:14:15;6.43;;;5.35;;
41061;SDS011;26812;42.662;23.352;2022-10-10T13:16:42;7.28;;;5.97;;
41061;SDS011;26812;42.662;23.352;2022-10-10T13:19:21;6.90;;;5.22;;
41061;SDS011;26812;42.662;23.352;2022-10-10T13:21:51;6.07;;;5.28;;
41061;SDS011;26812;42.662;23.352;2022-10-10T13:24:30;6.05;;;5.45;;
41061;SDS011;26812;42.662;23.352;2022-10-10T13:27:31;5.45;;;4.95;;
41061;SDS011;26812;42.662;23.352;2022-10-10T13:29:59;9.02;;;5.03;;
41061;SDS011;26812;42.662;23.352;2022-10-10T13:32:30;6.35;;;5.40;;
41061;SDS011;26812;42.662;23.352;2022-10-10T13:34:59;8.00;;;6.05;;
41061;SDS011;26812;42.662;23.352;2022-10-10T13:37:28;6.13;;;5.53;;
41061;SDS011;26812;42.662;23.352;2022-10-10T13:39:55;5.93;;;4.53;;
41061;SDS011;26812;42.662;23.352;2022-10-10T13:42:37;5.63;;;5.10;;
41061;SDS011;26812;42.662;23.352;2022-10-10T13:55:59;6.75;;;5.70;;
41061;SDS011;26812;42.662;23.352;2022-10-10T14:01:34;7.55;;;5.80;;
41061;SDS011;26812;42.662;23.352;2022-10-10T14:04:21;6.15;;;5.55;;
41061;SDS011;26812;42.662;23.352;2022-10-10T14:07:02;11.43;;;5.70;;
41061;SDS011;26812;42.662;23.352;2022-10-10T14:09:41;8.25;;;5.53;;
41061;SDS011;26812;42.662;23.352;2022-10-10T14:18:17;7.57;;;5.68;;
41061;SDS011;26812;42.662;23.352;2022-10-10T14:20:46;6.43;;;5.63;;
41061;SDS011;26812;42.662;23.352;2022-10-10T14:23:12;7.35;;;5.90;;
41061;SDS011;26812;42.662;23.352;2022-10-10T14:25:38;6.63;;;5.82;;
41061;SDS011;26812;42.662;23.352;2022-10-10T14:28:06;6.50;;;5.65;;
41061;SDS011;26812;42.662;23.352;2022-10-10T14:30:47;7.65;;;5.60;;
41061;SDS011;26812;42.662;23.352;2022-10-10T14:33:13;7.75;;;6.43;;
41061;SDS011;26812;42.662;23.352;2022-10-10T14:35:40;7.65;;;5.20;;
41061;SDS011;26812;42.662;23.352;2022-10-10T14:38:06;6.93;;;5.55;;
41061;SDS011;26812;42.662;23.352;2022-10-10T14:40:34;6.45;;;5.22;;
41061;SDS011;26812;42.662;23.352;2022-10-10T14:43:00;7.30;;;5.95;;
41061;SDS011;26812;42.662;23.352;2022-10-10T14:45:25;7.35;;;6.10;;
41061;SDS011;26812;42.662;23.352;2022-10-10T14:47:51;10.15;;;5.80;;
41061;SDS011;26812;42.662;23.352;2022-10-10T14:50:18;6.75;;;5.97;;
41061;SDS011;26812;42.662;23.352;2022-10-10T14:52:46;8.07;;;5.80;;
41061;SDS011;26812;42.662;23.352;2022-10-10T14:55:12;10.52;;;5.88;;
41061;SDS011;26812;42.662;23.352;2022-10-10T14:57:38;6.85;;;6.15;;
41061;SDS011;26812;42.662;23.352;2022-10-10T15:00:04;7.93;;;5.60;;
41061;SDS011;26812;42.662;23.352;2022-10-10T15:02:32;7.57;;;6.47;;
41061;SDS011;26812;42.662;23.352;2022-10-10T15:04:58;6.30;;;5.43;;
41061;SDS011;26812;42.662;23.352;2022-10-10T15:07:23;7.10;;;5.38;;
41061;SDS011;26812;42.662;23.352;2022-10-10T15:09:49;11.27;;;6.22;;
41061;SDS011;26812;42.662;23.352;2022-10-10T15:12:14;6.05;;;5.47;;
41061;SDS011;26812;42.662;23.352;2022-10-10T15:14:40;8.50;;;5.70;;
41061;SDS011;26812;42.662;23.352;2022-10-10T15:17:05;9.15;;;6.32;;
41061;SDS011;26812;42.662;23.352;2022-10-10T15:19:31;9.02;;;6.45;;
41061;SDS011;26812;42.662;23.352;2022-10-10T15:21:56;7.93;;;6.10;;
41061;SDS011;26812;42.662;23.352;2022-10-10T15:24:22;9.43;;;6.50;;
41061;SDS011;26812;42.662;23.352;2022-10-10T15:26:47;12.20;;;6.20;;
41061;SDS011;26812;42.662;23.352;2022-10-10T15:29:12;8.63;;;5.70;;
41061;SDS011;26812;42.662;23.352;2022-10-10T15:31:38;8.05;;;6.07;;
41061;SDS011;26812;42.662;23.352;2022-10-10T15:34:03;7.95;;;5.72;;
41061;SDS011;26812;42.662;23.352;2022-10-10T15:36:29;8.18;;;5.93;;
41061;SDS011;26812;42.662;23.352;2022-10-10T15:38:56;6.72;;;5.75;;
41061;SDS011;26812;42.662;23.352;2022-10-10T15:41:22;8.27;;;6.10;;
41061;SDS011;26812;42.662;23.352;2022-10-10T15:43:49;8.95;;;5.97;;
41061;SDS011;26812;42.662;23.352;2022-10-10T15:46:22;8.90;;;5.68;;
41061;SDS011;26812;42.662;23.352;2022-10-10T15:48:50;14.88;;;6.43;;
41061;SDS011;26812;42.662;23.352;2022-10-10T15:51:16;6.63;;;5.93;;
41061;SDS011;26812;42.662;23.352;2022-10-10T15:53:41;7.97;;;5.68;;
41061;SDS011;26812;42.662;23.352;2022-10-10T15:56:08;8.07;;;6.40;;
41061;SDS011;26812;42.662;23.352;2022-10-10T15:58:36;10.93;;;6.78;;
41061;SDS011;26812;42.662;23.352;2022-10-10T16:01:18;7.88;;;6.63;;
41061;SDS011;26812;42.662;23.352;2022-10-10T16:03:44;8.40;;;5.55;;
41061;SDS011;26812;42.662;23.352;2022-10-10T16:06:15;9.30;;;6.88;;
41061;SDS011;26812;42.662;23.352;2022-10-10T16:08:42;7.03;;;6.00;;
41061;SDS011;26812;42.662;23.352;2022-10-10T16:11:11;13.23;;;6.78;;
41061;SDS011;26812;42.662;23.352;2022-10-10T16:13:38;6.93;;;6.00;;
41061;SDS011;26812;42.662;23.352;2022-10-10T16:16:05;9.23;;;6.40;;
41061;SDS011;26812;42.662;23.352;2022-10-10T16:18:34;8.52;;;5.82;;
41061;SDS011;26812;42.662;23.352;2022-10-10T16:21:09;9.85;;;7.15;;
41061;SDS011;26812;42.662;23.352;2022-10-10T16:23:36;7.57;;;6.78;;
41061;SDS011;26812;42.662;23.352;2022-10-10T16:26:02;9.30;;;6.70;;
41061;SDS011;26812;42.662;23.352;2022-10-10T16:28:30;8.15;;;6.90;;
41061;SDS011;26812;42.662;23.352;2022-10-10T16:30:56;10.35;;;7.68;;
41061;SDS011;26812;42.662;23.352;2022-10-10T16:33:21;11.48;;;8.05;;
41061;SDS011;26812;42.662;23.352;2022-10-10T16:35:47;10.85;;;7.93;;
41061;SDS011;26812;42.662;23.352;2022-10-10T16:38:12;10.20;;;7.32;;
41061;SDS011;26812;42.662;23.352;2022-10-10T16:40:38;12.70;;;7.70;;
41061;SDS011;26812;42.662;23.352;2022-10-10T16:43:03;11.63;;;7.25;;
41061;SDS011;26812;42.662;23.352;2022-10-10T16:45:29;11.75;;;7.63;;
41061;SDS011;26812;42.662;23.352;2022-10-10T16:47:54;7.82;;;7.00;;
41061;SDS011;26812;42.662;23.352;2022-10-10T16:50:20;8.60;;;6.93;;